createdAt,value
2023-02-24T00:02:06.322Z,4.43
2023-02-24T00:04:38.622Z,4.10
2023-02-24T00:07:11.782Z,5.22
2023-02-24T00:09:40.615Z,4.00
2023-02-24T00:12:13.474Z,5.30
2023-02-24T00:14:47.494Z,4.38
2023-02-24T00:19:47.176Z,4.15
2023-02-24T00:22:17.151Z,4.47
2023-02-24T00:24:46.332Z,5.32
2023-02-24T00:27:14.430Z,4.88
2023-02-24T00:29:45.204Z,5.25
2023-02-24T00:32:15.105Z,5.03
2023-02-24T00:34:43.369Z,3.92
2023-02-24T00:37:16.620Z,4.43
2023-02-24T00:39:46.382Z,3.88
2023-02-24T00:42:14.967Z,5.50
2023-02-24T00:44:47.105Z,4.57
2023-02-24T00:47:18.989Z,4.82
2023-02-24T00:49:50.054Z,4.72
2023-02-24T00:52:20.602Z,4.55
2023-02-24T00:54:57.165Z,5.28
2023-02-24T00:57:26.247Z,4.63
2023-02-24T00:59:58.412Z,5.20
2023-02-24T01:02:25.482Z,4.72
2023-02-24T01:05:08.519Z,4.80
2023-02-24T01:07:38.154Z,4.20
2023-02-24T01:10:08.669Z,4.45
2023-02-24T01:12:49.820Z,4.25
2023-02-24T01:15:21.257Z,4.88
2023-02-24T01:17:50.634Z,4.05
2023-02-24T01:20:19.010Z,4.22
2023-02-24T01:22:49.195Z,4.80
2023-02-24T01:25:16.918Z,4.53
2023-02-24T01:27:45.246Z,3.95
2023-02-24T01:30:16.530Z,4.25
2023-02-24T01:32:44.857Z,4.60
2023-02-24T01:35:14.604Z,4.40
2023-02-24T01:37:43.241Z,4.43
2023-02-24T01:40:18.898Z,4.70
2023-02-24T01:42:49.357Z,3.92
2023-02-24T01:45:22.000Z,4.43
2023-02-24T01:47:51.814Z,4.75
2023-02-24T01:50:21.974Z,4.78
2023-02-24T01:52:56.185Z,4.57
2023-02-24T01:55:29.392Z,4.43
2023-02-24T01:58:01.317Z,4.80
2023-02-24T02:00:44.632Z,5.18
2023-02-24T02:03:19.745Z,6.00
2023-02-24T02:05:52.115Z,5.70
2023-02-24T02:08:23.795Z,5.47
2023-02-24T02:11:23.601Z,6.15
2023-02-24T02:13:54.421Z,6.10
2023-02-24T02:16:43.798Z,4.90
2023-02-24T02:19:31.232Z,5.63
2023-02-24T02:22:26.971Z,5.32
2023-02-24T02:25:25.666Z,5.90
2023-02-24T02:28:36.821Z,6.60
2023-02-24T02:31:47.084Z,5.93
2023-02-24T02:35:06.608Z,5.07
2023-02-24T02:38:38.417Z,5.15
2023-02-24T02:41:14.780Z,4.63
2023-02-24T02:43:49.721Z,5.32
2023-02-24T02:46:34.760Z,5.05
2023-02-24T02:49:14.634Z,5.32
2023-02-24T02:51:51.841Z,5.38
2023-02-24T02:54:33.915Z,5.45
2023-02-24T02:57:31.929Z,6.00
2023-02-24T03:00:29.398Z,5.28
2023-02-24T03:03:09.036Z,4.10
2023-02-24T03:05:47.165Z,4.60
2023-02-24T03:08:25.974Z,4.75
2023-02-24T03:10:58.096Z,5.03
2023-02-24T03:13:31.119Z,3.92
2023-02-24T03:16:01.910Z,3.03
2023-02-24T03:18:38.068Z,3.97
2023-02-24T03:21:21.084Z,3.53
2023-02-24T03:23:52.894Z,3.58
2023-02-24T03:26:46.258Z,4.05
2023-02-24T03:29:31.082Z,3.83
2023-02-24T03:32:05.050Z,3.75
2023-02-24T03:34:37.622Z,3.28
2023-02-24T03:37:07.109Z,3.63
2023-02-24T03:39:34.361Z,3.00
2023-02-24T03:42:19.244Z,3.42
2023-02-24T03:44:47.002Z,3.33
2023-02-24T03:47:17.795Z,3.20
2023-02-24T03:49:46.527Z,2.97
2023-02-24T03:53:09.156Z,3.05
2023-02-24T03:56:02.450Z,3.22
2023-02-24T03:58:48.252Z,3.20
2023-02-24T04:01:27.071Z,3.42
2023-02-24T04:04:06.083Z,3.20
2023-02-24T04:07:04.770Z,3.45
2023-02-24T04:09:47.403Z,4.60
2023-02-24T04:12:59.729Z,2.75
2023-02-24T04:15:37.822Z,3.13
2023-02-24T04:18:28.404Z,3.30
2023-02-24T04:21:01.790Z,2.95
2023-02-24T04:23:34.121Z,2.92
2023-02-24T04:26:02.589Z,3.50
2023-02-24T04:28:33.064Z,3.63
2023-02-24T04:31:06.330Z,3.67
2023-02-24T04:33:38.672Z,3.30
2023-02-24T04:36:34.166Z,2.95
2023-02-24T04:39:05.162Z,3.15
2023-02-24T04:41:36.170Z,2.83
2023-02-24T04:44:05.110Z,3.22
2023-02-24T04:46:32.428Z,3.90
2023-02-24T04:49:02.419Z,2.97
2023-02-24T04:51:32.401Z,2.80
2023-02-24T04:54:02.877Z,2.97
2023-02-24T04:56:30.764Z,3.67
2023-02-24T04:58:58.102Z,3.08
2023-02-24T05:01:26.987Z,3.10
2023-02-24T05:03:55.016Z,2.80
2023-02-24T05:06:29.312Z,3.33
2023-02-24T05:09:22.061Z,2.78
2023-02-24T05:11:51.050Z,3.63
2023-02-24T05:14:25.119Z,3.58
2023-02-24T05:16:58.464Z,3.88
2023-02-24T05:20:03.167Z,4.30
2023-02-24T05:24:58.092Z,3.70
2023-02-24T05:27:24.956Z,5.20
2023-02-24T05:29:53.323Z,3.97
2023-02-24T05:32:22.641Z,3.95
2023-02-24T05:35:19.489Z,4.45
2023-02-24T05:37:48.556Z,3.85
2023-02-24T05:40:15.738Z,3.95
2023-02-24T05:42:45.278Z,3.95
2023-02-24T05:45:12.584Z,4.38
2023-02-24T05:47:40.206Z,3.42
2023-02-24T05:50:09.244Z,3.55
2023-02-24T05:52:37.647Z,3.58
2023-02-24T05:55:13.992Z,4.13
2023-02-24T05:57:42.227Z,3.92
2023-02-24T06:00:16.910Z,3.28
2023-02-24T06:02:51.033Z,2.30
2023-02-24T06:09:12.763Z,2.22
2023-02-24T06:11:45.259Z,2.42
2023-02-24T06:18:13.120Z,3.10
2023-02-24T06:20:41.059Z,3.30
2023-02-24T06:23:08.845Z,3.00
2023-02-24T06:25:38.564Z,4.13
2023-02-24T06:28:06.548Z,3.33
2023-02-24T06:30:34.885Z,3.75
2023-02-24T06:33:02.017Z,2.90
2023-02-24T06:35:29.976Z,3.05
2023-02-24T06:37:57.067Z,3.25
2023-02-24T06:40:27.232Z,3.50
2023-02-24T06:42:55.408Z,3.20
2023-02-24T06:45:24.206Z,5.07
2023-02-24T06:47:51.134Z,4.40
2023-02-24T06:50:20.597Z,4.50
2023-02-24T06:52:49.751Z,3.70
2023-02-24T06:55:28.893Z,4.13
2023-02-24T06:58:04.324Z,3.95
2023-02-24T07:00:37.243Z,3.95
2023-02-24T07:03:16.402Z,3.28
2023-02-24T07:05:50.422Z,3.75
2023-02-24T07:08:19.729Z,3.50
2023-02-24T07:10:56.603Z,3.65
2023-02-24T07:13:29.848Z,3.65
2023-02-24T07:16:00.190Z,3.13
2023-02-24T07:18:27.112Z,3.20
2023-02-24T07:20:55.018Z,3.25
2023-02-24T07:23:23.205Z,3.30
2023-02-24T07:25:50.178Z,2.97
2023-02-24T07:28:19.198Z,3.30
2023-02-24T07:30:47.285Z,3.42
2023-02-24T07:33:14.451Z,3.40
2023-02-24T07:35:42.386Z,2.70
2023-02-24T07:38:09.569Z,3.65
2023-02-24T07:40:42.047Z,3.10
2023-02-24T07:43:11.068Z,3.63
2023-02-24T07:45:41.534Z,3.90
2023-02-24T07:48:14.503Z,3.97
2023-02-24T07:50:44.072Z,4.45
2023-02-24T07:53:11.042Z,4.20
2023-02-24T07:55:40.175Z,3.60
2023-02-24T07:58:07.189Z,4.65
2023-02-24T08:00:57.056Z,4.63
2023-02-24T08:03:28.662Z,3.55
2023-02-24T08:06:13.066Z,5.40
2023-02-24T08:08:58.418Z,3.97
2023-02-24T08:11:37.116Z,4.60
2023-02-24T08:14:14.066Z,4.45
2023-02-24T08:16:45.470Z,5.32
2023-02-24T08:19:20.416Z,4.05
2023-02-24T08:21:51.484Z,4.25
2023-02-24T08:24:25.296Z,4.00
2023-02-24T08:27:05.502Z,4.00
2023-02-24T08:29:55.609Z,4.60
2023-02-24T08:32:52.357Z,10.40
2023-02-24T08:35:23.147Z,5.90
2023-02-24T08:37:53.057Z,5.82
2023-02-24T08:40:34.375Z,5.05
2023-02-24T08:43:33.407Z,4.20
2023-02-24T08:46:37.864Z,3.75
2023-02-24T08:49:10.689Z,3.83
2023-02-24T08:51:44.084Z,3.65
2023-02-24T08:54:21.901Z,3.03
2023-02-24T08:57:26.440Z,2.83
2023-02-24T08:59:57.744Z,3.80
2023-02-24T09:02:29.328Z,3.42
2023-02-24T09:05:13.090Z,4.03
2023-02-24T09:07:54.720Z,21.65
2023-02-24T09:10:23.034Z,3.67
2023-02-24T09:12:53.591Z,3.45
2023-02-24T09:15:24.873Z,2.92
2023-02-24T09:18:01.560Z,3.22
2023-02-24T09:20:54.823Z,2.35
2023-02-24T09:23:29.865Z,2.90
2023-02-24T09:25:58.801Z,4.00
2023-02-24T09:28:27.660Z,3.03
2023-02-24T09:31:00.297Z,3.67
2023-02-24T09:36:21.277Z,3.53
2023-02-24T09:39:03.180Z,3.22
2023-02-24T09:41:56.778Z,3.05
2023-02-24T09:44:49.140Z,3.55
2023-02-24T09:47:40.710Z,3.60
2023-02-24T09:50:51.246Z,3.15
2023-02-24T09:53:14.599Z,3.17
2023-02-24T09:56:01.128Z,3.08
2023-02-24T09:59:10.548Z,3.50
2023-02-24T10:01:53.100Z,3.35
2023-02-24T10:04:27.819Z,2.85
2023-02-24T10:07:18.732Z,3.10
2023-02-24T10:10:31.792Z,3.08
2023-02-24T10:13:17.067Z,2.90
2023-02-24T10:16:06.698Z,3.78
2023-02-24T10:19:01.542Z,4.80
2023-02-24T10:22:05.815Z,2.92
2023-02-24T10:24:49.335Z,3.03
2023-02-24T10:27:28.283Z,3.20
2023-02-24T10:31:11.609Z,3.05
2023-02-24T10:33:46.733Z,3.47
2023-02-24T10:36:38.214Z,2.50
2023-02-24T10:42:34.661Z,3.05
2023-02-24T10:45:25.177Z,3.70
2023-02-24T10:51:33.802Z,3.38
2023-02-24T10:54:44.859Z,3.97
2023-02-24T10:57:47.488Z,3.50
2023-02-24T11:01:03.788Z,3.20
2023-02-24T11:03:42.091Z,3.15
2023-02-24T11:06:53.915Z,3.50
2023-02-24T11:09:34.672Z,3.67
2023-02-24T11:12:53.562Z,2.40
2023-02-24T11:16:15.791Z,2.92
2023-02-24T11:21:42.873Z,4.32
2023-02-24T11:24:22.893Z,3.40
2023-02-24T11:26:53.813Z,3.10
2023-02-24T11:29:53.610Z,3.88
2023-02-24T11:32:45.602Z,3.85
2023-02-24T11:35:30.663Z,4.78
2023-02-24T11:38:39.444Z,3.60
2023-02-24T11:41:28.083Z,3.40
2023-02-24T11:44:23.351Z,4.55
2023-02-24T11:47:02.881Z,3.40
2023-02-24T11:49:45.326Z,3.10
2023-02-24T11:52:24.336Z,3.58
2023-02-24T11:54:55.077Z,4.75
2023-02-24T11:57:38.089Z,3.63
2023-02-24T12:00:13.554Z,4.10
2023-02-24T12:03:19.797Z,3.88
2023-02-24T12:05:56.539Z,3.47
2023-02-24T12:08:38.652Z,3.85
2023-02-24T12:11:19.902Z,4.15
2023-02-24T12:14:06.934Z,3.38
2023-02-24T12:19:47.337Z,3.70
2023-02-24T12:22:18.476Z,3.75
2023-02-24T12:42:39.344Z,4.38
2023-02-24T12:46:20.367Z,3.90
2023-02-24T12:49:21.064Z,3.88
2023-02-24T12:55:18.195Z,4.50
2023-02-24T12:58:32.704Z,4.72
2023-02-24T13:01:16.664Z,4.63
2023-02-24T13:04:28.130Z,4.15
2023-02-24T13:06:58.411Z,4.65
2023-02-24T13:09:50.909Z,4.65
2023-02-24T13:12:36.948Z,4.82
2023-02-24T13:15:06.897Z,6.95
2023-02-24T13:17:33.949Z,4.65
2023-02-24T13:20:11.525Z,9.48
2023-02-24T13:22:42.462Z,4.85
2023-02-24T13:25:09.707Z,9.95
2023-02-24T13:27:59.987Z,5.25
2023-02-24T13:30:30.519Z,4.80
2023-02-24T13:33:18.440Z,7.03
2023-02-24T13:35:53.387Z,5.50
2023-02-24T13:38:47.394Z,6.55
2023-02-24T13:42:27.893Z,5.90
2023-02-24T13:45:46.913Z,3.95
2023-02-24T13:48:38.024Z,5.45
2023-02-24T13:51:47.060Z,6.25
2023-02-24T13:54:26.393Z,6.65
2023-02-24T13:57:25.634Z,5.38
2023-02-24T14:00:35.205Z,7.15
2023-02-24T14:03:44.753Z,5.53
2023-02-24T14:07:21.570Z,8.35
2023-02-24T14:15:07.690Z,8.90
2023-02-24T14:17:38.729Z,9.38
2023-02-24T14:20:24.962Z,11.10
2023-02-24T14:23:00.272Z,10.32
2023-02-24T14:25:35.042Z,11.23
2023-02-24T14:28:02.554Z,10.93
2023-02-24T14:30:37.553Z,11.30
2023-02-24T14:33:18.252Z,11.02
2023-02-24T14:35:48.562Z,11.10
2023-02-24T14:38:38.274Z,11.70
2023-02-24T14:41:18.441Z,10.75
2023-02-24T14:43:46.005Z,11.23
2023-02-24T14:46:18.441Z,13.05
2023-02-24T14:48:45.919Z,14.02
2023-02-24T14:51:29.260Z,15.25
2023-02-24T14:54:01.754Z,11.68
2023-02-24T14:56:33.421Z,11.85
2023-02-24T14:59:29.335Z,12.23
2023-02-24T15:01:58.469Z,17.08
2023-02-24T15:04:29.062Z,13.02
2023-02-24T15:07:02.852Z,11.18
2023-02-24T15:09:42.079Z,12.05
2023-02-24T15:12:33.722Z,11.60
2023-02-24T15:15:11.513Z,11.60
2023-02-24T15:17:41.395Z,11.88
2023-02-24T15:20:45.261Z,12.38
2023-02-24T15:23:47.440Z,11.93
2023-02-24T15:26:29.922Z,11.65
2023-02-24T15:29:01.085Z,11.73
2023-02-24T15:31:30.496Z,12.88
2023-02-24T15:34:01.606Z,11.18
2023-02-24T15:36:35.861Z,9.65
2023-02-24T15:39:10.555Z,12.30
2023-02-24T15:41:47.982Z,12.73
2023-02-24T15:44:32.506Z,11.55
2023-02-24T15:47:12.019Z,13.07
2023-02-24T15:49:41.836Z,10.98
2023-02-24T15:52:20.577Z,11.52
2023-02-24T15:54:48.715Z,12.75
2023-02-24T15:57:17.999Z,14.32
2023-02-24T15:59:47.536Z,13.63
2023-02-24T16:02:20.966Z,15.38
2023-02-24T16:04:52.500Z,14.60
2023-02-24T16:07:21.283Z,14.82
2023-02-24T16:09:52.323Z,15.10
2023-02-24T16:12:24.186Z,16.05
2023-02-24T16:14:55.963Z,15.43
2023-02-24T16:17:39.102Z,14.73
2023-02-24T16:20:27.602Z,14.98
2023-02-24T16:22:56.592Z,15.57
2023-02-24T16:25:25.367Z,15.23
2023-02-24T16:27:57.228Z,13.70
2023-02-24T16:30:30.421Z,14.20
2023-02-24T16:33:05.636Z,15.13
2023-02-24T16:35:32.751Z,14.55
2023-02-24T16:38:00.449Z,15.70
2023-02-24T16:40:35.474Z,15.23
2023-02-24T16:43:02.360Z,16.63
2023-02-24T16:45:29.716Z,24.35
2023-02-24T16:48:02.802Z,28.90
2023-02-24T16:50:34.106Z,29.30
2023-02-24T16:53:01.583Z,24.00
2023-02-24T16:55:28.771Z,15.35
2023-02-24T16:58:06.666Z,15.02
2023-02-24T17:00:35.450Z,15.00
2023-02-24T17:03:07.948Z,19.17
2023-02-24T17:08:04.358Z,22.92
2023-02-24T17:10:31.894Z,16.63
2023-02-24T17:13:01.236Z,13.82
2023-02-24T17:15:29.643Z,13.63
2023-02-24T17:18:01.861Z,17.27
2023-02-24T17:21:42.243Z,12.23
2023-02-24T17:24:18.227Z,12.40
2023-02-24T17:26:47.582Z,13.57
2023-02-24T17:29:14.860Z,14.07
2023-02-24T17:31:42.726Z,21.15
2023-02-24T17:34:12.239Z,9.68
2023-02-24T17:36:40.689Z,9.25
2023-02-24T17:39:10.954Z,9.88
2023-02-24T17:41:38.133Z,14.10
2023-02-24T17:44:05.085Z,10.98
2023-02-24T17:46:35.116Z,8.57
2023-02-24T17:49:08.881Z,7.03
2023-02-24T17:51:39.185Z,8.23
2023-02-24T17:54:06.859Z,13.10
2023-02-24T17:56:34.807Z,18.38
2023-02-24T17:59:01.791Z,16.35
2023-02-24T18:01:34.959Z,11.60
2023-02-24T18:04:08.756Z,9.48
2023-02-24T18:06:35.798Z,7.32
2023-02-24T18:09:04.886Z,5.78
2023-02-24T18:11:34.049Z,9.82
2023-02-24T18:14:03.819Z,4.30
2023-02-24T18:16:30.813Z,11.15
2023-02-24T18:19:00.062Z,5.50
2023-02-24T18:21:27.440Z,4.32
2023-02-24T18:23:54.594Z,4.57
2023-02-24T18:26:28.528Z,3.28
2023-02-24T18:28:58.381Z,2.97
2023-02-24T18:31:27.528Z,3.30
2023-02-24T18:33:57.533Z,3.88
2023-02-24T18:36:35.719Z,2.83
2023-02-24T18:39:10.389Z,3.35
2023-02-24T18:41:37.912Z,3.50
2023-02-24T18:44:12.010Z,3.30
2023-02-24T18:46:49.497Z,9.55
2023-02-24T18:49:20.428Z,2.30
2023-02-24T18:51:49.079Z,3.47
2023-02-24T18:54:26.246Z,3.30
2023-02-24T18:56:55.736Z,10.57
2023-02-24T18:59:26.389Z,5.10
2023-02-24T19:01:57.148Z,7.10
2023-02-24T19:04:24.616Z,7.45
2023-02-24T19:06:58.334Z,4.10
2023-02-24T19:09:27.528Z,3.95
2023-02-24T19:12:24.977Z,3.33
2023-02-24T19:14:52.873Z,3.20
2023-02-24T19:17:21.575Z,3.30
2023-02-24T19:19:49.722Z,3.67
2023-02-24T19:22:16.744Z,5.00
2023-02-24T19:24:44.835Z,4.35
2023-02-24T19:27:11.771Z,3.92
2023-02-24T19:32:24.825Z,4.05
2023-02-24T19:34:51.928Z,5.50
2023-02-24T19:37:21.782Z,4.55
2023-02-24T19:39:55.446Z,3.95
2023-02-24T19:42:27.557Z,4.65
2023-02-24T19:44:55.393Z,5.88
2023-02-24T19:47:22.818Z,5.07
2023-02-24T19:49:50.841Z,5.03
2023-02-24T19:52:22.272Z,3.33
2023-02-24T19:54:52.035Z,4.88
2023-02-24T19:57:24.212Z,3.00
2023-02-24T19:59:52.491Z,3.88
2023-02-24T20:02:19.920Z,3.92
2023-02-24T20:04:47.664Z,3.70
2023-02-24T20:07:18.729Z,3.33
2023-02-24T20:09:48.789Z,4.13
2023-02-24T20:12:19.099Z,3.83
2023-02-24T20:14:47.633Z,3.88
2023-02-24T20:17:15.006Z,4.15
2023-02-24T20:19:42.804Z,4.18
2023-02-24T20:22:10.992Z,3.63
2023-02-24T20:24:43.127Z,4.25
2023-02-24T20:27:11.609Z,4.80
2023-02-24T20:29:39.413Z,4.00
2023-02-24T20:35:43.100Z,3.53
2023-02-24T20:41:08.633Z,4.20
2023-02-24T20:43:41.495Z,3.38
2023-02-24T20:49:05.986Z,4.25
2023-02-24T20:51:38.028Z,3.60
2023-02-24T20:54:08.365Z,4.25
2023-02-24T20:56:55.251Z,3.35
2023-02-24T21:02:30.719Z,3.25
2023-02-24T21:05:02.049Z,3.13
2023-02-24T21:07:33.916Z,3.28
2023-02-24T21:10:02.837Z,3.00
2023-02-24T21:12:34.625Z,5.22
2023-02-24T21:15:03.205Z,4.47
2023-02-24T21:17:30.789Z,5.43
2023-02-24T21:19:58.489Z,5.05
2023-02-24T21:22:26.681Z,4.20
2023-02-24T21:24:54.257Z,3.80
2023-02-24T21:27:22.652Z,4.97
2023-02-24T21:29:52.289Z,3.88
2023-02-24T21:32:20.110Z,4.90
2023-02-24T21:37:31.907Z,8.23
2023-02-24T21:40:02.309Z,4.57
2023-02-24T21:42:30.447Z,3.50
2023-02-24T21:45:02.666Z,5.50
2023-02-24T21:47:32.876Z,7.65
2023-02-24T21:50:07.376Z,5.53
2023-02-24T21:52:35.474Z,5.55
2023-02-24T21:55:03.065Z,4.70
2023-02-24T21:57:31.413Z,4.45
2023-02-24T22:00:02.381Z,4.60
2023-02-24T22:02:59.004Z,4.50
2023-02-24T22:05:29.949Z,4.05
2023-02-24T22:08:03.407Z,3.67
2023-02-24T22:10:30.782Z,4.13
2023-02-24T22:13:01.734Z,4.97
2023-02-24T22:15:35.270Z,2.85
2023-02-24T22:18:04.723Z,2.67
2023-02-24T22:20:37.174Z,2.58
2023-02-24T22:23:06.074Z,3.13
2023-02-24T22:25:36.351Z,2.97
2023-02-24T22:28:04.458Z,4.13
2023-02-24T22:33:49.157Z,3.83
2023-02-24T22:36:31.619Z,2.67
2023-02-24T22:41:44.241Z,2.60
2023-02-24T22:44:27.177Z,2.83
2023-02-24T22:47:53.262Z,3.13
2023-02-24T22:50:30.323Z,2.70
2023-02-24T22:58:32.205Z,3.85
2023-02-24T23:01:00.274Z,3.30
2023-02-24T23:03:32.969Z,3.72
2023-02-24T23:08:33.548Z,4.07
2023-02-24T23:11:12.481Z,3.35
2023-02-24T23:13:41.911Z,4.03
2023-02-24T23:16:12.157Z,3.67
2023-02-24T23:18:40.113Z,3.47
2023-02-24T23:21:10.371Z,3.90
2023-02-24T23:23:38.675Z,4.03
2023-02-24T23:28:50.544Z,3.75
2023-02-24T23:31:22.224Z,4.35
2023-02-24T23:33:54.750Z,3.57
2023-02-24T23:38:51.282Z,4.32
2023-02-24T23:41:21.697Z,4.38
2023-02-24T23:43:48.892Z,3.90
2023-02-24T23:46:16.177Z,4.13
2023-02-24T23:48:44.706Z,3.85
2023-02-24T23:54:03.567Z,3.92
2023-02-24T23:59:16.076Z,4.43
